createdAt,value
2019-03-25T00:01:58.824Z,6.82
2019-03-25T00:04:27.427Z,6.80
2019-03-25T00:06:56.062Z,6.75
2019-03-25T00:09:24.804Z,6.75
2019-03-25T00:11:53.479Z,6.66
2019-03-25T00:14:21.983Z,6.54
2019-03-25T00:16:50.654Z,6.45
2019-03-25T00:19:19.387Z,6.42
2019-03-25T00:21:48.029Z,6.35
2019-03-25T00:24:16.593Z,6.32
2019-03-25T00:26:45.281Z,6.25
2019-03-25T00:29:13.987Z,6.27
2019-03-25T00:31:42.491Z,6.42
2019-03-25T00:34:11.097Z,6.35
2019-03-25T00:36:39.831Z,6.25
2019-03-25T00:39:08.617Z,6.25
2019-03-25T00:41:37.440Z,6.21
2019-03-25T00:44:06.080Z,6.19
2019-03-25T00:46:34.708Z,6.17
2019-03-25T00:49:03.382Z,6.18
2019-03-25T00:51:32.020Z,6.33
2019-03-25T00:54:00.659Z,6.43
2019-03-25T00:56:29.324Z,6.34
2019-03-25T00:58:57.958Z,6.21
2019-03-25T01:01:26.595Z,6.10
2019-03-25T01:03:55.278Z,6.03
2019-03-25T01:06:23.917Z,6.07
2019-03-25T01:08:52.548Z,5.97
2019-03-25T01:11:21.222Z,5.91
2019-03-25T01:13:49.863Z,5.87
2019-03-25T01:16:18.538Z,5.85
2019-03-25T01:18:47.218Z,5.74
2019-03-25T01:21:15.847Z,5.61
2019-03-25T01:23:44.480Z,5.52
2019-03-25T01:26:13.112Z,5.44
2019-03-25T01:28:41.747Z,5.38
2019-03-25T01:31:10.646Z,5.33
2019-03-25T01:33:39.274Z,5.27
2019-03-25T01:36:07.792Z,5.27
2019-03-25T01:38:37.306Z,5.22
2019-03-25T01:41:05.941Z,5.19
2019-03-25T01:43:34.505Z,5.00
2019-03-25T01:46:03.229Z,4.93
2019-03-25T01:48:31.788Z,4.87
2019-03-25T01:51:00.424Z,4.79
2019-03-25T01:53:29.105Z,4.82
2019-03-25T01:55:57.599Z,4.82
2019-03-25T01:58:26.453Z,4.82
2019-03-25T02:00:55.101Z,4.84
2019-03-25T02:03:23.721Z,4.87
2019-03-25T02:05:52.404Z,4.88
2019-03-25T02:08:21.304Z,4.83
2019-03-25T02:10:49.861Z,4.71
2019-03-25T02:13:18.499Z,4.63
2019-03-25T02:15:47.130Z,4.56
2019-03-25T02:18:15.719Z,4.49
2019-03-25T02:20:44.462Z,4.44
2019-03-25T02:23:13.147Z,4.37
2019-03-25T02:25:41.743Z,4.33
2019-03-25T02:28:10.358Z,4.28
2019-03-25T02:30:38.962Z,4.26
2019-03-25T02:33:07.589Z,4.28
2019-03-25T02:35:36.266Z,4.22
2019-03-25T02:38:04.898Z,4.28
2019-03-25T02:40:33.541Z,4.33
2019-03-25T02:43:02.212Z,4.27
2019-03-25T02:45:30.770Z,4.35
2019-03-25T02:47:59.445Z,4.24
2019-03-25T02:50:28.188Z,4.11
2019-03-25T02:52:56.745Z,4.16
2019-03-25T02:55:40.166Z,4.15
2019-03-25T02:57:55.565Z,4.15
2019-03-25T03:00:34.998Z,4.25
2019-03-25T03:03:04.202Z,4.26
2019-03-25T03:05:32.694Z,4.22
2019-03-25T03:08:01.254Z,4.21
2019-03-25T03:10:30.043Z,4.05
2019-03-25T03:12:58.615Z,4.13
2019-03-25T03:15:27.245Z,4.21
2019-03-25T03:17:56.189Z,4.29
2019-03-25T03:20:24.757Z,4.38
2019-03-25T03:22:53.354Z,4.44
2019-03-25T03:25:21.992Z,4.47
2019-03-25T03:27:50.555Z,4.46
2019-03-25T03:30:19.346Z,4.50
2019-03-25T03:32:47.995Z,4.44
2019-03-25T03:35:16.612Z,4.43
2019-03-25T03:37:45.213Z,4.32
2019-03-25T03:40:14.045Z,4.22
2019-03-25T03:42:42.804Z,4.15
2019-03-25T03:45:11.755Z,4.10
2019-03-25T03:47:40.320Z,4.03
2019-03-25T03:50:09.258Z,3.98
2019-03-25T03:52:38.364Z,3.98
2019-03-25T03:55:07.286Z,3.98
2019-03-25T03:57:36.326Z,3.89
2019-03-25T04:00:07.543Z,3.88
2019-03-25T04:02:36.212Z,3.84
2019-03-25T04:05:04.949Z,3.82
2019-03-25T04:07:33.515Z,3.88
2019-03-25T04:10:02.169Z,3.82
2019-03-25T04:12:30.844Z,3.93
2019-03-25T04:14:59.475Z,3.97
2019-03-25T04:17:28.047Z,3.94
2019-03-25T04:19:56.927Z,3.98
2019-03-25T04:22:25.493Z,4.03
2019-03-25T04:24:53.998Z,4.07
2019-03-25T04:27:23.465Z,4.08
2019-03-25T04:29:52.114Z,4.13
2019-03-25T04:32:20.678Z,4.23
2019-03-25T04:34:49.448Z,4.44
2019-03-25T04:37:18.020Z,4.71
2019-03-25T04:39:46.700Z,5.08
2019-03-25T04:42:15.302Z,5.57
2019-03-25T04:44:43.943Z,6.12
2019-03-25T04:47:12.506Z,6.58
2019-03-25T04:49:41.362Z,7.23
2019-03-25T04:52:10.017Z,7.77
2019-03-25T04:54:38.643Z,8.28
2019-03-25T04:57:07.311Z,8.74
2019-03-25T04:59:35.810Z,9.22
2019-03-25T05:02:04.390Z,9.69
2019-03-25T05:04:33.269Z,10.09
2019-03-25T05:07:01.837Z,10.63
2019-03-25T05:09:30.343Z,11.21
2019-03-25T05:11:59.126Z,11.78
2019-03-25T05:14:27.833Z,12.21
2019-03-25T05:16:56.407Z,12.50
2019-03-25T05:19:25.291Z,12.62
2019-03-25T05:21:53.853Z,13.10
2019-03-25T05:24:22.525Z,13.44
2019-03-25T05:26:51.518Z,13.58
2019-03-25T05:29:20.169Z,13.80
2019-03-25T05:31:48.745Z,14.22
2019-03-25T05:34:17.306Z,14.42
2019-03-25T05:36:45.880Z,14.57
2019-03-25T05:39:14.631Z,14.55
2019-03-25T05:41:43.239Z,14.12
2019-03-25T05:44:11.743Z,14.24
2019-03-25T05:46:40.325Z,14.69
2019-03-25T05:49:08.941Z,14.93
2019-03-25T05:51:37.507Z,15.06
2019-03-25T05:54:06.080Z,15.81
2019-03-25T05:56:34.757Z,16.16
2019-03-25T05:59:03.422Z,15.53
2019-03-25T06:01:32.258Z,16.27
2019-03-25T06:04:00.809Z,16.61
2019-03-25T06:06:29.354Z,16.93
2019-03-25T06:08:58.000Z,16.40
2019-03-25T06:11:26.609Z,16.05
2019-03-25T06:13:55.218Z,16.32
2019-03-25T06:16:23.849Z,16.47
2019-03-25T06:18:52.523Z,16.19
2019-03-25T06:21:21.092Z,16.49
2019-03-25T06:23:49.615Z,16.55
2019-03-25T06:26:18.220Z,16.32
2019-03-25T06:28:46.864Z,16.30
2019-03-25T06:31:15.498Z,16.64
2019-03-25T06:33:44.018Z,16.64
2019-03-25T06:36:12.589Z,17.45
2019-03-25T06:38:41.423Z,18.28
2019-03-25T06:41:10.047Z,18.71
2019-03-25T06:43:38.681Z,18.65
2019-03-25T06:46:07.375Z,18.58
2019-03-25T06:48:35.881Z,18.55
2019-03-25T06:51:04.523Z,19.25
2019-03-25T06:53:33.239Z,19.45
2019-03-25T06:56:01.828Z,18.32
2019-03-25T06:58:30.316Z,18.99
2019-03-25T07:00:59.043Z,19.22
2019-03-25T07:03:29.782Z,19.00
2019-03-25T07:05:57.977Z,19.12
2019-03-25T07:08:26.529Z,19.51
2019-03-25T07:10:55.272Z,19.69
2019-03-25T07:13:24.603Z,19.41
2019-03-25T07:15:53.282Z,18.87
2019-03-25T07:18:21.855Z,18.40
2019-03-25T07:20:50.497Z,18.46
2019-03-25T07:23:19.108Z,19.08
2019-03-25T07:25:47.674Z,17.66
2019-03-25T07:28:16.318Z,17.81
2019-03-25T07:30:44.918Z,17.53
2019-03-25T07:33:13.493Z,17.82
2019-03-25T07:35:42.066Z,18.07
2019-03-25T07:38:10.878Z,18.32
2019-03-25T07:40:39.451Z,18.35
2019-03-25T07:43:07.991Z,18.05
2019-03-25T07:45:36.679Z,17.65
2019-03-25T07:48:05.329Z,17.33
2019-03-25T07:50:33.948Z,17.47
2019-03-25T07:53:02.480Z,17.98
2019-03-25T07:55:31.046Z,18.64
2019-03-25T07:57:59.619Z,18.60
2019-03-25T08:00:28.436Z,18.90
2019-03-25T08:02:57.038Z,19.10
2019-03-25T08:05:25.616Z,19.00
2019-03-25T08:07:54.385Z,18.75
2019-03-25T08:10:33.576Z,18.60
2019-03-25T08:13:02.538Z,18.93
2019-03-25T08:15:31.206Z,19.00
2019-03-25T08:18:00.084Z,19.21
2019-03-25T08:20:29.668Z,19.91
2019-03-25T08:22:58.314Z,20.13
2019-03-25T08:25:26.947Z,19.85
2019-03-25T08:28:00.127Z,19.27
2019-03-25T08:30:25.925Z,18.89
2019-03-25T08:32:54.567Z,19.23
2019-03-25T08:35:23.165Z,19.04
2019-03-25T08:37:51.754Z,18.81
2019-03-25T08:40:20.497Z,18.45
2019-03-25T08:42:49.097Z,18.78
2019-03-25T08:45:17.729Z,19.67
2019-03-25T08:47:46.372Z,19.92
2019-03-25T08:50:15.246Z,19.79
2019-03-25T08:52:43.826Z,19.31
2019-03-25T08:55:12.869Z,18.74
2019-03-25T08:57:41.578Z,17.84
2019-03-25T09:00:11.700Z,17.45
2019-03-25T09:02:40.276Z,16.94
2019-03-25T09:05:09.740Z,17.35
2019-03-25T09:07:38.373Z,18.57
2019-03-25T09:10:08.312Z,18.86
2019-03-25T09:12:37.120Z,18.19
2019-03-25T09:15:08.561Z,17.52
2019-03-25T09:17:37.270Z,17.87
2019-03-25T09:20:08.245Z,18.12
2019-03-25T09:22:36.957Z,18.15
2019-03-25T09:25:07.601Z,18.36
2019-03-25T09:27:36.481Z,18.21
2019-03-25T09:30:07.493Z,18.27
2019-03-25T09:32:36.248Z,18.28
2019-03-25T09:35:07.221Z,17.67
2019-03-25T09:37:35.720Z,17.70
2019-03-25T09:40:08.743Z,17.72
2019-03-25T09:42:37.413Z,17.57
2019-03-25T09:45:08.421Z,16.93
2019-03-25T09:47:37.935Z,17.47
2019-03-25T09:50:08.982Z,17.61
2019-03-25T09:52:38.731Z,17.60
2019-03-25T09:55:08.333Z,17.61
2019-03-25T09:57:37.143Z,17.48
2019-03-25T10:00:12.093Z,17.42
2019-03-25T10:02:40.775Z,17.45
2019-03-25T10:05:09.974Z,17.42
2019-03-25T10:07:38.622Z,17.47
2019-03-25T10:10:08.398Z,17.57
2019-03-25T10:12:37.155Z,17.59
2019-03-25T10:15:08.505Z,17.60
2019-03-25T10:17:37.181Z,17.65
2019-03-25T10:20:07.113Z,17.58
2019-03-25T10:22:35.621Z,17.66
2019-03-25T10:25:06.562Z,17.72
2019-03-25T10:27:35.206Z,17.66
2019-03-25T10:30:05.464Z,17.84
2019-03-25T10:32:34.024Z,18.18
2019-03-25T10:35:02.612Z,18.33
2019-03-25T10:37:31.181Z,18.54
2019-03-25T10:39:59.798Z,18.64
2019-03-25T10:42:28.447Z,18.37
2019-03-25T10:44:57.006Z,18.46
2019-03-25T10:47:25.556Z,18.59
2019-03-25T10:49:54.120Z,18.48
2019-03-25T10:52:22.765Z,18.34
2019-03-25T10:54:51.869Z,18.48
2019-03-25T10:57:20.574Z,18.59
2019-03-25T10:59:49.155Z,18.49
2019-03-25T11:02:18.062Z,18.50
2019-03-25T11:04:46.642Z,18.74
2019-03-25T11:07:15.238Z,18.72
2019-03-25T11:09:43.924Z,18.74
2019-03-25T11:12:12.669Z,18.82
2019-03-25T11:14:41.442Z,19.12
2019-03-25T11:17:10.060Z,19.14
2019-03-25T11:19:38.702Z,19.21
2019-03-25T11:22:07.343Z,19.13
2019-03-25T11:24:36.256Z,19.23
2019-03-25T11:27:04.891Z,19.24
2019-03-25T11:29:33.536Z,19.30
2019-03-25T11:32:02.227Z,19.45
2019-03-25T11:34:30.803Z,19.51
2019-03-25T11:36:59.320Z,19.56
2019-03-25T11:39:27.985Z,19.70
2019-03-25T11:41:56.625Z,19.53
2019-03-25T11:44:25.196Z,19.80
2019-03-25T11:46:53.802Z,19.79
2019-03-25T11:49:22.434Z,19.92
2019-03-25T11:51:51.070Z,19.97
2019-03-25T11:54:19.678Z,19.93
2019-03-25T11:56:48.296Z,19.89
2019-03-25T11:59:18.897Z,19.98
2019-03-25T12:01:47.439Z,19.87
2019-03-25T12:04:16.012Z,19.94
2019-03-25T12:06:44.653Z,20.05
2019-03-25T12:09:13.327Z,20.18
2019-03-25T12:11:41.937Z,20.40
2019-03-25T12:14:10.506Z,20.43
2019-03-25T12:16:39.190Z,20.46
2019-03-25T12:19:07.753Z,20.38
2019-03-25T12:21:36.243Z,20.35
2019-03-25T12:24:05.116Z,20.20
2019-03-25T12:26:33.759Z,20.03
2019-03-25T12:29:02.473Z,19.94
2019-03-25T12:31:31.159Z,20.00
2019-03-25T12:33:59.864Z,19.94
2019-03-25T12:36:28.419Z,20.13
2019-03-25T12:38:57.890Z,20.25
2019-03-25T12:41:26.520Z,20.40
2019-03-25T12:43:55.071Z,20.48
2019-03-25T12:46:23.904Z,20.50
2019-03-25T12:48:52.453Z,20.45
2019-03-25T12:51:21.076Z,20.31
2019-03-25T12:53:49.678Z,20.40
2019-03-25T12:56:18.184Z,20.39
2019-03-25T12:58:46.748Z,20.46
2019-03-25T13:01:15.424Z,20.51
2019-03-25T13:03:44.049Z,20.58
2019-03-25T13:06:12.620Z,20.81
2019-03-25T13:08:41.236Z,21.11
2019-03-25T13:11:09.869Z,21.24
2019-03-25T13:13:38.433Z,21.18
2019-03-25T13:16:07.100Z,21.03
2019-03-25T13:18:35.659Z,21.12
2019-03-25T13:21:04.293Z,21.09
2019-03-25T13:23:32.888Z,21.05
2019-03-25T13:26:01.526Z,21.21
2019-03-25T13:28:30.095Z,21.31
2019-03-25T13:30:58.775Z,21.34
2019-03-25T13:33:29.393Z,21.22
2019-03-25T13:35:57.700Z,21.19
2019-03-25T13:38:26.981Z,21.32
2019-03-25T13:40:55.474Z,21.23
2019-03-25T13:43:24.047Z,21.03
2019-03-25T13:45:52.738Z,20.91
2019-03-25T13:48:21.311Z,20.88
2019-03-25T13:50:49.808Z,20.82
2019-03-25T13:53:18.597Z,21.10
2019-03-25T13:55:47.230Z,21.17
2019-03-25T13:58:15.804Z,21.24
2019-03-25T14:00:44.657Z,21.42
2019-03-25T14:03:13.231Z,21.46
2019-03-25T14:05:41.734Z,21.50
2019-03-25T14:08:10.328Z,21.48
2019-03-25T14:10:39.063Z,21.47
2019-03-25T14:13:07.693Z,21.48
2019-03-25T14:15:36.282Z,21.46
2019-03-25T14:18:05.215Z,21.35
2019-03-25T14:20:33.849Z,21.19
2019-03-25T14:23:02.468Z,21.11
2019-03-25T14:25:30.958Z,21.21
2019-03-25T14:27:59.534Z,21.25
2019-03-25T14:30:28.273Z,21.34
2019-03-25T14:32:56.840Z,21.26
2019-03-25T14:35:25.416Z,21.34
2019-03-25T14:37:54.331Z,21.48
2019-03-25T14:40:22.895Z,21.44
2019-03-25T14:42:51.461Z,21.25
2019-03-25T14:45:26.274Z,21.18
2019-03-25T14:47:50.675Z,21.03
2019-03-25T14:50:19.506Z,20.90
2019-03-25T14:52:48.254Z,20.76
2019-03-25T14:55:16.895Z,20.71
2019-03-25T14:57:45.455Z,20.73
2019-03-25T15:00:24.446Z,20.73
2019-03-25T15:02:44.805Z,20.66
2019-03-25T15:05:13.621Z,20.75
2019-03-25T15:07:43.145Z,20.61
2019-03-25T15:10:12.182Z,20.58
2019-03-25T15:12:40.746Z,20.48
2019-03-25T15:15:09.883Z,20.35
2019-03-25T15:17:38.459Z,20.26
2019-03-25T15:20:10.041Z,20.21
2019-03-25T15:22:38.948Z,20.19
2019-03-25T15:25:09.680Z,20.20
2019-03-25T15:27:38.309Z,20.21
2019-03-25T15:30:10.113Z,20.24
2019-03-25T15:32:38.803Z,20.19
2019-03-25T15:35:08.396Z,20.26
2019-03-25T15:37:36.989Z,20.17
2019-03-25T15:40:08.565Z,20.04
2019-03-25T15:42:37.247Z,19.98
2019-03-25T15:45:07.485Z,20.01
2019-03-25T15:47:36.157Z,20.02
2019-03-25T15:50:07.744Z,19.89
2019-03-25T15:52:36.375Z,19.83
2019-03-25T15:55:05.808Z,19.85
2019-03-25T15:57:34.488Z,19.79
2019-03-25T16:00:03.324Z,19.69
2019-03-25T16:02:31.888Z,19.64
2019-03-25T16:05:00.566Z,19.65
2019-03-25T16:07:29.142Z,19.56
2019-03-25T16:09:57.715Z,19.46
2019-03-25T16:12:26.326Z,19.44
2019-03-25T16:14:54.891Z,19.33
2019-03-25T16:17:23.457Z,19.25
2019-03-25T16:19:52.011Z,19.11
2019-03-25T16:22:20.570Z,19.08
2019-03-25T16:24:49.209Z,18.99
2019-03-25T16:27:17.816Z,18.95
2019-03-25T16:29:46.321Z,18.94
2019-03-25T16:32:14.962Z,18.82
2019-03-25T16:34:43.634Z,18.71
2019-03-25T16:37:12.293Z,18.64
2019-03-25T16:39:40.806Z,18.52
2019-03-25T16:42:09.399Z,18.43
2019-03-25T16:44:38.030Z,18.33
2019-03-25T16:47:06.606Z,18.27
2019-03-25T16:49:35.136Z,18.15
2019-03-25T16:52:03.774Z,18.06
2019-03-25T16:54:32.420Z,17.96
2019-03-25T16:57:01.099Z,17.88
2019-03-25T16:59:29.597Z,17.85
2019-03-25T17:01:58.161Z,17.74
2019-03-25T17:04:26.838Z,17.69
2019-03-25T17:06:55.500Z,17.60
2019-03-25T17:09:24.021Z,17.52
2019-03-25T17:11:52.802Z,17.45
2019-03-25T17:14:21.374Z,17.38
2019-03-25T17:16:49.945Z,17.22
2019-03-25T17:19:18.624Z,17.08
2019-03-25T17:21:57.390Z,16.95
2019-03-25T17:24:17.491Z,16.91
2019-03-25T17:26:46.157Z,16.71
2019-03-25T17:29:14.797Z,16.56
2019-03-25T17:31:43.363Z,16.47
2019-03-25T17:34:11.948Z,16.60
2019-03-25T17:36:40.544Z,16.79
2019-03-25T17:39:09.839Z,16.94
2019-03-25T17:41:38.455Z,17.04
2019-03-25T17:44:06.950Z,17.05
2019-03-25T17:46:35.524Z,17.05
2019-03-25T17:49:04.197Z,17.01
2019-03-25T17:51:32.930Z,17.01
2019-03-25T17:54:02.057Z,17.02
2019-03-25T17:56:30.731Z,17.06
2019-03-25T17:58:59.401Z,16.98
2019-03-25T18:01:32.591Z,16.95
2019-03-25T18:04:00.096Z,16.89
2019-03-25T18:06:28.792Z,16.82
2019-03-25T18:08:57.453Z,16.71
2019-03-25T18:11:26.155Z,16.67
2019-03-25T18:13:54.782Z,16.65
2019-03-25T18:16:23.425Z,16.68
2019-03-25T18:18:52.102Z,16.70
2019-03-25T18:21:20.776Z,16.65
2019-03-25T18:23:49.413Z,16.65
2019-03-25T18:26:18.167Z,16.62
2019-03-25T18:28:46.662Z,16.54
2019-03-25T18:31:15.228Z,16.47
2019-03-25T18:33:43.999Z,16.32
2019-03-25T18:36:12.681Z,16.23
2019-03-25T18:38:41.358Z,16.14
2019-03-25T18:41:10.511Z,16.08
2019-03-25T18:43:39.085Z,16.07
2019-03-25T18:46:07.726Z,15.91
2019-03-25T18:48:36.657Z,15.93
2019-03-25T18:51:05.414Z,15.86
2019-03-25T18:53:34.063Z,15.85
2019-03-25T18:56:02.928Z,15.85
2019-03-25T18:58:31.558Z,15.81
2019-03-25T19:01:00.132Z,15.80
2019-03-25T19:03:28.876Z,15.83
2019-03-25T19:05:57.511Z,15.86
2019-03-25T19:08:26.146Z,15.91
2019-03-25T19:10:54.751Z,15.92
2019-03-25T19:13:23.250Z,15.97
2019-03-25T19:15:51.822Z,15.99
2019-03-25T19:18:20.657Z,16.06
2019-03-25T19:20:49.292Z,15.97
2019-03-25T19:23:17.934Z,15.88
2019-03-25T19:25:46.874Z,15.67
2019-03-25T19:28:15.492Z,15.60
2019-03-25T19:30:44.064Z,15.45
2019-03-25T19:33:12.620Z,15.45
2019-03-25T19:35:41.254Z,15.43
2019-03-25T19:38:09.890Z,15.33
2019-03-25T19:40:38.511Z,15.30
2019-03-25T19:43:07.081Z,15.19
2019-03-25T19:45:35.651Z,15.17
2019-03-25T19:48:05.009Z,15.02
2019-03-25T19:50:33.758Z,14.75
2019-03-25T19:53:02.323Z,14.60
2019-03-25T19:55:31.045Z,14.54
2019-03-25T19:57:59.622Z,14.44
2019-03-25T20:00:31.179Z,14.34
2019-03-25T20:02:59.854Z,14.21
2019-03-25T20:05:28.509Z,14.12
2019-03-25T20:07:57.160Z,14.07
2019-03-25T20:10:31.242Z,13.97
2019-03-25T20:13:00.903Z,13.89
2019-03-25T20:15:32.610Z,13.83
2019-03-25T20:17:59.906Z,13.80
2019-03-25T20:20:28.463Z,13.72
2019-03-25T20:22:57.164Z,13.71
2019-03-25T20:25:25.953Z,13.69
2019-03-25T20:27:54.569Z,13.58
2019-03-25T20:30:23.372Z,13.59
2019-03-25T20:32:51.967Z,13.60
2019-03-25T20:35:20.551Z,13.53
2019-03-25T20:37:49.190Z,13.50
2019-03-25T20:40:18.005Z,13.44
2019-03-25T20:42:46.646Z,13.37
2019-03-25T20:45:18.228Z,13.33
2019-03-25T20:47:45.922Z,13.30
2019-03-25T20:50:14.720Z,13.24
2019-03-25T20:52:43.497Z,13.25
2019-03-25T20:55:13.651Z,13.23
2019-03-25T20:57:42.318Z,13.12
2019-03-25T21:00:13.365Z,13.08
2019-03-25T21:02:45.225Z,13.02
2019-03-25T21:05:12.361Z,12.98
2019-03-25T21:07:41.063Z,12.97
2019-03-25T21:10:09.678Z,12.95
2019-03-25T21:12:38.719Z,12.93
2019-03-25T21:15:08.812Z,12.90
2019-03-25T21:17:37.414Z,12.90
2019-03-25T21:20:07.744Z,12.88
2019-03-25T21:22:36.555Z,12.85
2019-03-25T21:25:07.214Z,12.89
2019-03-25T21:27:35.761Z,12.92
2019-03-25T21:30:05.738Z,12.92
2019-03-25T21:32:34.468Z,12.93
2019-03-25T21:35:03.155Z,12.90
2019-03-25T21:37:31.985Z,12.82
2019-03-25T21:40:00.542Z,12.80
2019-03-25T21:42:29.458Z,12.75
2019-03-25T21:44:58.190Z,12.74
2019-03-25T21:47:26.970Z,12.73
2019-03-25T21:49:55.611Z,12.62
2019-03-25T21:52:24.282Z,12.67
2019-03-25T21:54:52.998Z,12.62
2019-03-25T21:57:21.483Z,12.49
2019-03-25T21:59:50.140Z,12.49
2019-03-25T22:02:18.764Z,12.44
2019-03-25T22:04:47.329Z,12.40
2019-03-25T22:07:16.067Z,12.23
2019-03-25T22:09:44.713Z,12.14
2019-03-25T22:12:13.340Z,12.00
2019-03-25T22:14:41.959Z,11.87
2019-03-25T22:17:10.467Z,11.81
2019-03-25T22:19:39.111Z,11.72
2019-03-25T22:22:08.291Z,11.77
2019-03-25T22:24:36.849Z,11.76
2019-03-25T22:27:05.487Z,11.68
2019-03-25T22:29:34.139Z,11.52
2019-03-25T22:32:02.852Z,11.45
2019-03-25T22:34:31.401Z,11.27
2019-03-25T22:37:00.082Z,11.21
2019-03-25T22:39:28.650Z,11.05
2019-03-25T22:41:57.147Z,10.92
2019-03-25T22:44:25.751Z,10.74
2019-03-25T22:46:54.395Z,10.63
2019-03-25T22:49:22.967Z,10.54
2019-03-25T22:51:51.667Z,10.57
2019-03-25T22:54:20.303Z,10.52
2019-03-25T22:56:49.076Z,10.41
2019-03-25T22:59:17.959Z,10.32
2019-03-25T23:01:46.607Z,10.28
2019-03-25T23:04:15.192Z,10.28
2019-03-25T23:06:43.851Z,10.22
2019-03-25T23:09:12.459Z,10.12
2019-03-25T23:11:41.091Z,10.03
2019-03-25T23:14:09.695Z,10.03
2019-03-25T23:16:38.191Z,10.09
2019-03-25T23:19:06.895Z,9.96
2019-03-25T23:21:35.587Z,9.86
2019-03-25T23:24:04.983Z,9.91
2019-03-25T23:26:33.551Z,9.87
2019-03-25T23:29:02.149Z,9.83
2019-03-25T23:31:30.788Z,9.71
2019-03-25T23:33:59.358Z,9.60
2019-03-25T23:36:28.178Z,9.55
2019-03-25T23:38:56.815Z,9.56
2019-03-25T23:41:25.456Z,9.49
2019-03-25T23:43:54.067Z,9.49
2019-03-25T23:46:22.564Z,9.50
2019-03-25T23:48:51.141Z,9.51
2019-03-25T23:51:19.944Z,9.48
2019-03-25T23:53:48.513Z,9.33
2019-03-25T23:56:18.913Z,9.28
2019-03-25T23:58:47.673Z,9.24
